| Date | Time | Temp. (oF) | Dew Point (oF) | Rel. Hum. (%) | Press. (in.) | Wind Dir. | Wind Speed (mph) | Hourly Rainfall (in.) |
|
|---|---|---|---|---|---|---|---|---|---|
| 1 | 08/23 | 00:00 | 77 | 73 | 90 | 29.98 | S | 1 | 0.00 |
| 2 | 08/22 | 23:00 | 82 | 74 | 78 | 30.01 | WNW | 5 | 0.00 |
| 3 | 08/22 | 22:00 | 82 | 72 | 73 | 29.98 | SSW | 4 | 0.00 |
| 4 | 08/22 | 21:00 | 83 | 72 | 71 | 29.96 | S | 13 | 0.00 |
| 5 | 08/22 | 20:00 | 84 | 70 | 65 | 29.95 | S | 4 | 0.00 |
| 6 | 08/22 | 19:00 | 87 | 70 | 59 | 29.96 | S | 7 | 0.00 |
| 7 | 08/22 | 18:00 | 91 | 70 | 51 | 29.97 | SSW | 9 | 0.00 |
| 8 | 08/22 | 17:00 | 92 | 68 | 47 | 29.99 | SSE | 4 | 0.00 |
| 9 | 08/22 | 16:00 | 91 | 67 | 46 | 30.02 | SSW | 14 | 0.00 |
| 10 | 08/22 | 15:00 | 88 | 67 | 51 | 30.05 | SSW | 6 | 0.00 |
| 11 | 08/22 | 14:00 | 88 | 68 | 53 | 30.09 | SSW | 9 | 0.00 |
| 12 | 08/22 | 13:00 | 87 | 69 | 56 | 30.12 | S | 6 | 0.00 |
| 13 | 08/22 | 12:00 | 83 | 67 | 59 | 30.16 | S | 9 | 0.00 |
| 14 | 08/22 | 11:00 | 80 | 66 | 63 | 30.19 | SSE | 9 | 0.00 |
| 15 | 08/22 | 10:00 | 77 | 66 | 70 | 30.21 | SSE | 8 | 0.00 |
| 16 | 08/22 | 09:00 | 74 | 65 | 75 | 30.21 | S | 4 | 0.00 |
| 17 | 08/22 | 08:00 | 73 | 65 | 77 | 30.22 | SSW | 2 | 0.00 |
| 18 | 08/22 | 07:00 | 72 | 65 | 79 | 30.21 | S | 5 | 0.00 |
| 19 | 08/22 | 06:00 | 72 | 65 | 79 | 30.22 | S | 3 | 0.00 |
| 20 | 08/22 | 05:00 | 73 | 64 | 76 | 30.22 | SSE | 5 | 0.00 |
| 21 | 08/22 | 04:00 | 73 | 63 | 73 | 30.23 | S | 5 | 0.00 |
| 22 | 08/22 | 03:00 | 73 | 64 | 74 | 30.23 | S | 6 | 0.00 |
| 23 | 08/22 | 02:00 | 73 | 62 | 69 | 30.25 | SSW | 3 | 0.00 |
| 24 | 08/22 | 01:00 | 72 | 63 | 74 | 30.24 | S | 4 | 0.00 |